Salish Orca — CFBS — position and weather

sailwx.info

Track history (hours):
 
Tides and Currents Weather Stations Pressure Air Temp Water Temp Dewpoint Dewpoint Depression Visibility Wind Speed Wind Dir Waves Ship Positions

Salish Orca

Last reported at 2018-Feb-21 01:30 UTC. Time now 2018-Feb-21 01:56 UTC.
Position N 49°50' W 124°33'.

Length 107 m; draft 4.6 m.

Type: Passenger vessel. MMSI: 316030627.

Date/timePositionNaut miles runAvg speedWind from/ knotsBaromVisibWave heightAir tempDewpointWater temp
2018-Feb-21 01:30N 49°50' W 124°33'1 1.2
2018-Feb-21 01:01N 49°50' W 124°32'3 5.0
2018-Feb-21 00:31N 49°49' W 124°36'510.8
2018-Feb-21 00:00N 49°47' W 124°44'713.6
2018-Feb-20 23:31N 49°45' W 124°53'1 2.6
2018-Feb-20 23:00N 49°44' W 124°55'0 0.0
2018-Feb-20 22:30N 49°44' W 124°55'0 0.0
2018-Feb-20 22:00N 49°44' W 124°55'0 0.0
2018-Feb-20 21:30N 49°44' W 124°55'1 1.8
2018-Feb-20 21:00N 49°45' W 124°54'713.8
2018-Feb-20 20:30N 49°47' W 124°44'713.1
2018-Feb-20 20:00N 49°49' W 124°35'2 3.7
2018-Feb-20 19:30N 49°50' W 124°32'3 5.5
2018-Feb-20 19:01N 49°49' W 124°36'612.7
2018-Feb-20 18:30N 49°47' W 124°45'612.2
2018-Feb-20 18:01N 49°45' W 124°54'1 2.0
2018-Feb-20 17:30N 49°44' W 124°55'3 6.3
2018-Feb-20 17:01N 49°45' W 124°51'714.3
2018-Feb-20 16:31N 49°48' W 124°41'612.0
2018-Feb-20 16:00N 49°50' W 124°32'0 0.1
2018-Feb-20 15:30N 49°50' W 124°32'612.3
2018-Feb-20 15:00N 49°48' W 124°41'713.7
2018-Feb-20 14:30N 49°45' W 124°51'3 6.5
2018-Feb-20 14:00N 49°44' W 124°55'0 0.0
2018-Feb-20 13:29N 49°44' W 124°55'0 0.0
2018-Feb-20 12:59N 49°44' W 124°55'0 0.0
2018-Feb-20 12:29N 49°44' W 124°55'0 0.0
2018-Feb-20 11:59N 49°44' W 124°55'0 0.0
2018-Feb-20 11:29N 49°44' W 124°55'0 0.0
2018-Feb-20 10:59N 49°44' W 124°55'0 0.0
2018-Feb-20 10:29N 49°44' W 124°55'0 0.0
2018-Feb-20 09:59N 49°44' W 124°55'0 0.0
2018-Feb-20 09:29N 49°44' W 124°55'0 0.0
2018-Feb-20 08:59N 49°44' W 124°55'0 0.0
2018-Feb-20 08:29N 49°44' W 124°55'0 0.0
2018-Feb-20 07:59N 49°44' W 124°55'0 0.0
2018-Feb-20 07:28N 49°44' W 124°55'0 0.0
2018-Feb-20 06:56N 49°44' W 124°55'0 0.0
2018-Feb-20 06:29N 49°44' W 124°55'0 0.0
2018-Feb-20 06:00N 49°44' W 124°55'511.2
2018-Feb-20 05:31N 49°46' W 124°47'714.1
2018-Feb-20 05:01N 49°49' W 124°37'4 7.4
2018-Feb-20 04:31N 49°50' W 124°32'5 9.2
2018-Feb-20 04:00N 49°48' W 124°39'714.0
2018-Feb-20 03:30N 49°46' W 124°49'5 9.2
2018-Feb-20 03:00N 49°44' W 124°55'0 0.6
2018-Feb-20 02:30N 49°45' W 124°55'612.6
2018-Feb-20 02:00N 49°47' W 124°46'713.8
2018-Feb-20 01:30N 49°49' W 124°35'2 5.1
2018-Feb-20 01:00N 49°50' W 124°32'1 2.4
2018-Feb-20 00:30N 49°49' W 124°33'713.6
2018-Feb-20 00:00N 49°47' W 124°43'713.9
2018-Feb-19 23:31N 49°45' W 124°53'1 2.7
2018-Feb-19 23:01N 49°44' W 124°55'0 0.0
2018-Feb-19 22:28N 49°44' W 124°55'0 0.0
2018-Feb-19 21:58N 49°44' W 124°55'0 0.0
2018-Feb-19 21:22N 49°44' W 124°55'0 1.2
2018-Feb-19 21:00N 49°45' W 124°55'714.0
2018-Feb-19 20:30N 49°47' W 124°45'714.1
2018-Feb-19 20:00N 49°49' W 124°34'2 3.4
2018-Feb-19 19:30N 49°50' W 124°32'2 4.6
2018-Feb-19 18:59N 49°49' W 124°35'613.4
2018-Feb-19 18:30N 49°47' W 124°45'713.4
2018-Feb-19 18:00N 49°45' W 124°54'1 1.4
2018-Feb-19 17:30N 49°44' W 124°55'3 6.6
2018-Feb-19 16:59N 49°46' W 124°51'714.3
2018-Feb-19 16:30N 49°48' W 124°40'611.8
2018-Feb-19 16:00N 49°50' W 124°32'0 0.1
2018-Feb-19 15:30N 49°50' W 124°32'612.2
2018-Feb-19 15:00N 49°48' W 124°41'713.7
2018-Feb-19 14:30N 49°46' W 124°51'3 5.8
2018-Feb-19 13:57N 49°44' W 124°55'0 0.0
2018-Feb-19 13:27N 49°44' W 124°55'0 0.0
2018-Feb-19 12:57N 49°44' W 124°55'0 0.0
2018-Feb-19 12:27N 49°44' W 124°55'0 0.0
2018-Feb-19 11:57N 49°44' W 124°55'0 0.0
2018-Feb-19 11:27N 49°44' W 124°55'0 0.0
2018-Feb-19 10:57N 49°44' W 124°55'0 0.0
2018-Feb-19 10:27N 49°44' W 124°55'0 0.0
2018-Feb-19 09:57N 49°44' W 124°55'0 0.0
2018-Feb-19 09:27N 49°44' W 124°55'0 0.0
2018-Feb-19 08:57N 49°44' W 124°55'0 0.0
2018-Feb-19 08:21N 49°44' W 124°55'0 0.0
2018-Feb-19 07:57N 49°44' W 124°55'0 0.0
2018-Feb-19 07:27N 49°44' W 124°55'0 0.0
2018-Feb-19 06:57N 49°44' W 124°55'0 0.0
2018-Feb-19 06:27N 49°44' W 124°55'0 0.0
2018-Feb-19 06:00N 49°44' W 124°55'511.0
2018-Feb-19 05:30N 49°46' W 124°48'714.1
2018-Feb-19 05:00N 49°49' W 124°37'4 7.5
2018-Feb-19 04:30N 49°50' W 124°32'5 9.8
2018-Feb-19 04:01N 49°50' W 124°39'713.6
2018-Feb-19 03:30N 49°47' W 124°49'5 9.5
2018-Feb-19 03:00N 49°44' W 124°55'0 0.0
2018-Feb-19 02:30N 49°44' W 124°55'612.7
2018-Feb-19 02:00N 49°47' W 124°46'714.7
2018-Feb-19 01:30N 49°49' W 124°36'2 5.0
2018-Feb-19 01:01N 49°50' W 124°32'2 4.8
2018-Feb-19 00:31N 49°50' W 124°36'612.9
2018-Feb-19 00:01N 49°48' W 124°45'612.9
2018-Feb-18 23:31N 49°45' W 124°54'1 1.6
2018-Feb-18 22:50N 49°44' W 124°55'0 0.0
2018-Feb-18 22:23N 49°44' W 124°55'0 0.0
2018-Feb-18 21:56N 49°44' W 124°55'0 0.0
2018-Feb-18 21:23N 49°44' W 124°55'1 1.7
2018-Feb-18 21:00N 49°45' W 124°55'713.4
2018-Feb-18 20:31N 49°47' W 124°45'714.4
2018-Feb-18 20:00N 49°49' W 124°34'2 3.3
2018-Feb-18 19:30N 49°50' W 124°32'3 6.3
2018-Feb-18 19:00N 49°49' W 124°36'713.1
2018-Feb-18 18:30N 49°48' W 124°46'612.4
2018-Feb-18 18:00N 49°45' W 124°55'0 0.9
2018-Feb-18 17:30N 49°44' W 124°55'4 7.7
2018-Feb-18 17:00N 49°46' W 124°50'713.6
2018-Feb-18 16:31N 49°48' W 124°40'611.0
2018-Feb-18 16:00N 49°50' W 124°32'2 4.1
2018-Feb-18 15:30N 49°49' W 124°35'612.7
2018-Feb-18 15:00N 49°47' W 124°44'713.6
2018-Feb-18 14:30N 49°45' W 124°54'1 1.9
2018-Feb-18 14:00N 49°44' W 124°55'0 0.0
2018-Feb-18 13:25N 49°44' W 124°55'0 0.0
2018-Feb-18 12:55N 49°44' W 124°55'0 0.0
2018-Feb-18 12:25N 49°44' W 124°55'0 0.0
2018-Feb-18 11:55N 49°44' W 124°55'0 0.0
2018-Feb-18 11:19N 49°44' W 124°55'0 0.0
2018-Feb-18 10:55N 49°44' W 124°55'0 0.0
2018-Feb-18 10:19N 49°44' W 124°55'0 0.0
2018-Feb-18 09:49N 49°44' W 124°55'0 0.0
2018-Feb-18 09:25N 49°44' W 124°55'0 0.0
2018-Feb-18 08:55N 49°44' W 124°55'0 0.0
2018-Feb-18 08:25N 49°44' W 124°55'0 0.0
2018-Feb-18 07:55N 49°44' W 124°55'0 0.0
2018-Feb-18 07:19N 49°44' W 124°55'0 0.0
2018-Feb-18 06:55N 49°44' W 124°55'0 0.0
2018-Feb-18 06:25N 49°44' W 124°55'2 4.0
2018-Feb-18 06:00N 49°45' W 124°53'611.1
2018-Feb-18 05:30N 49°46' W 124°44'612.9
2018-Feb-18 05:00N 49°49' W 124°36'3 5.8
2018-Feb-18 04:30N 49°50' W 124°32'612.3
2018-Feb-18 03:59N 49°49' W 124°42'612.9
2018-Feb-18 03:30N 49°46' W 124°50'4 7.5
2018-Feb-18 03:00N 49°44' W 124°55'0 0.1
2018-Feb-18 02:30N 49°44' W 124°55'611.6
2018-Feb-18 02:00N 49°47' W 124°47'713.8
2018-Feb-18 01:31N 49°49' W 124°37'4 7.0
2018-Feb-18 01:00N 49°50' W 124°32'1 2.7
2018-Feb-18 00:30N 49°50' W 124°34'714.1
2018-Feb-18 00:00N 49°47' W 124°44'713.8
2018-Feb-17 23:30N 49°45' W 124°54'1 1.2
2018-Feb-17 22:42N 49°44' W 124°55'0 0.0
2018-Feb-17 22:18N 49°44' W 124°55'0 0.0
2018-Feb-17 21:48N 49°44' W 124°55'0 0.0
2018-Feb-17 21:30N 49°44' W 124°55'0 0.0
2018-Feb-17 20:59N 49°44' W 124°55'611.7
2018-Feb-17 20:30N 49°47' W 124°47'815.9
2018-Feb-17 20:00N 49°49' W 124°36'3 5.3
2018-Feb-17 19:30N 49°50' W 124°32'4 7.3
2018-Feb-17 19:00N 49°49' W 124°37'611.4
2018-Feb-17 18:30N 49°46' W 124°45'611.9
2018-Feb-17 18:00N 49°45' W 124°54'1 1.9
2018-Feb-17 17:30N 49°44' W 124°55'713.4
2018-Feb-17 17:00N 49°44' W 124°45'5 9.9
2018-Feb-17 16:30N 49°47' W 124°39'611.6
2018-Feb-17 16:00N 49°50' W 124°32'2 3.1
2018-Feb-17 15:30N 49°49' W 124°34'612.7
2018-Feb-17 15:00N 49°46' W 124°42'611.5
2018-Feb-17 14:28N 49°45' W 124°52'3 4.6
2018-Feb-17 13:56N 49°44' W 124°55'0 0.0
2018-Feb-17 13:29N 49°44' W 124°55'0 0.0
2018-Feb-17 12:50N 49°44' W 124°55'0 0.0
2018-Feb-17 12:26N 49°44' W 124°55'0 0.0
2018-Feb-17 11:59N 49°44' W 124°55'0 0.0
2018-Feb-17 11:29N 49°44' W 124°55'0 0.0
2018-Feb-17 10:59N 49°44' W 124°55'0 0.0
2018-Feb-17 10:29N 49°44' W 124°55'0 0.0
2018-Feb-17 09:59N 49°44' W 124°55'0 0.0
2018-Feb-17 09:29N 49°44' W 124°55'0 0.0
2018-Feb-17 08:59N 49°44' W 124°55'0 0.0
2018-Feb-17 08:29N 49°44' W 124°55'0 0.0
2018-Feb-17 07:59N 49°44' W 124°55'0 0.0
2018-Feb-17 07:29N 49°44' W 124°55'0 0.0
2018-Feb-17 06:59N 49°44' W 124°55'0 0.0
2018-Feb-17 06:29N 49°44' W 124°55'0 0.0
2018-Feb-17 06:00N 49°44' W 124°55'611.6
2018-Feb-17 05:30N 49°47' W 124°47'713.7
2018-Feb-17 05:00N 49°49' W 124°37'4 7.2
2018-Feb-17 04:30N 49°50' W 124°32'5 9.8
2018-Feb-17 04:00N 49°48' W 124°39'714.4
2018-Feb-17 03:30N 49°46' W 124°49'4 8.0
2018-Feb-17 03:00N 49°44' W 124°55'0 0.1
2018-Feb-17 02:30N 49°44' W 124°55'612.7
2018-Feb-17 02:00N 49°47' W 124°46'713.5
2018-Feb-17 01:30N 49°49' W 124°36'3 6.2
2018-Feb-17 01:00N 49°50' W 124°32'2 4.7
2018-Feb-17 00:30N 49°49' W 124°35'713.0
2018-Feb-17 00:00N 49°47' W 124°45'713.0
2018-Feb-16 23:30N 49°45' W 124°54'1 1.5
2018-Feb-16 22:58N 49°44' W 124°55'0 0.0
2018-Feb-16 22:28N 49°44' W 124°55'0 0.0
2018-Feb-16 21:58N 49°44' W 124°55'0 0.0
2018-Feb-16 21:22N 49°44' W 124°55'0 1.1
2018-Feb-16 21:00N 49°45' W 124°55'713.5
2018-Feb-16 20:30N 49°47' W 124°45'713.7
2018-Feb-16 20:00N 49°49' W 124°35'2 4.5
2018-Feb-16 19:30N 49°50' W 124°32'2 3.5
2018-Feb-16 19:00N 49°49' W 124°34'714.2
2018-Feb-16 18:30N 49°47' W 124°45'713.9
2018-Feb-16 18:00N 49°45' W 124°55'0 0.8
2018-Feb-16 17:30N 49°44' W 124°55'3 6.3
2018-Feb-16 17:00N 49°46' W 124°51'714.6
2018-Feb-16 16:30N 49°48' W 124°40'610.6
2018-Feb-16 15:58N 49°50' W 124°32'0 0.2
2018-Feb-16 15:30N 49°50' W 124°32'712.8
2018-Feb-16 15:00N 49°48' W 124°41'613.1
2018-Feb-16 14:30N 49°46' W 124°51'3 6.4
2018-Feb-16 14:00N 49°44' W 124°55'0 0.0
2018-Feb-16 13:30N 49°44' W 124°55'0 0.0
2018-Feb-16 12:57N 49°44' W 124°55'0 0.0
2018-Feb-16 12:21N 49°44' W 124°55'0 0.0
2018-Feb-16 11:57N 49°44' W 124°55'0 0.0
2018-Feb-16 11:27N 49°44' W 124°55'0 0.0
2018-Feb-16 10:57N 49°44' W 124°55'0 0.0
2018-Feb-16 10:27N 49°44' W 124°55'0 0.0
2018-Feb-16 09:57N 49°44' W 124°55'0 0.0
2018-Feb-16 09:27N 49°44' W 124°55'0 0.0
2018-Feb-16 09:00N 49°44' W 124°55'0 0.0
2018-Feb-16 08:27N 49°44' W 124°55'0 0.0
2018-Feb-16 07:57N 49°44' W 124°55'0 0.0
2018-Feb-16 07:27N 49°44' W 124°55'0 0.0
2018-Feb-16 06:57N 49°44' W 124°55'0 0.0
2018-Feb-16 06:30N 49°44' W 124°55'0 0.0
2018-Feb-16 06:00N 49°44' W 124°55'612.0
2018-Feb-16 05:30N 49°47' W 124°47'713.7
2018-Feb-16 05:00N 49°49' W 124°37'3 6.7
2018-Feb-16 04:30N 49°50' W 124°32'5 9.9
2018-Feb-16 04:00N 49°48' W 124°39'713.6
2018-Feb-16 03:31N 49°46' W 124°49'4 8.9
2018-Feb-16 03:00N 49°44' W 124°55'0 0.1
2018-Feb-16 02:30N 49°44' W 124°55'612.3
2018-Feb-16 02:00N 49°47' W 124°47'713.4
2018-Feb-16 01:30N 49°49' W 124°37'3 6.9
2018-Feb-16 01:00N 49°50' W 124°32'1 2.6
2018-Feb-16 00:30N 49°49' W 124°34'714.0
2018-Feb-16 00:00N 49°47' W 124°44'714.3
2018-Feb-15 23:31N 49°45' W 124°54'1 1.6
2018-Feb-15 23:00N 49°44' W 124°55'0 0.0
2018-Feb-15 22:30N 49°44' W 124°55'0 0.0
2018-Feb-15 21:56N 49°44' W 124°55'0 0.0
2018-Feb-15 21:26N 49°44' W 124°55'0 0.6
2018-Feb-15 21:00N 49°44' W 124°55'713.4
2018-Feb-15 20:30N 49°47' W 124°45'714.1
2018-Feb-15 20:00N 49°49' W 124°35'2 4.6
2018-Feb-15 19:30N 49°50' W 124°32'2 3.5
2018-Feb-15 19:00N 49°49' W 124°34'613.0
2018-Feb-15 18:30N 49°47' W 124°44'713.2
2018-Feb-15 18:00N 49°45' W 124°54'1 2.6
2018-Feb-15 17:30N 49°44' W 124°55'4 7.8
2018-Feb-15 17:00N 49°46' W 124°50'713.4
2018-Feb-15 16:30N 49°48' W 124°40'611.2
2018-Feb-15 16:00N 49°50' W 124°32'0 0.1
2018-Feb-15 15:30N 49°50' W 124°32'612.3
2018-Feb-15 15:00N 49°48' W 124°41'713.3
2018-Feb-15 14:30N 49°46' W 124°51'3 6.7
2018-Feb-15 14:00N 49°44' W 124°55'0 0.0
2018-Feb-15 13:30N 49°44' W 124°55'0 0.0
2018-Feb-15 12:52N 49°44' W 124°55'0 0.0
2018-Feb-15 12:28N 49°44' W 124°55'0 0.0
2018-Feb-15 11:58N 49°44' W 124°55'0 0.0
2018-Feb-15 11:28N 49°44' W 124°55'0 0.0
2018-Feb-15 10:58N 49°44' W 124°55'0 0.0
2018-Feb-15 10:16N 49°44' W 124°55'0 0.0
2018-Feb-15 09:58N 49°44' W 124°55'0 0.0
2018-Feb-15 09:25N 49°44' W 124°55'0 0.0
2018-Feb-15 08:58N 49°44' W 124°55'0 0.0
2018-Feb-15 08:28N 49°44' W 124°55'0 0.0
2018-Feb-15 07:52N 49°44' W 124°55'0 0.0
2018-Feb-15 07:28N 49°44' W 124°55'0 0.0
2018-Feb-15 06:58N 49°44' W 124°55'0 0.0
2018-Feb-15 06:25N 49°44' W 124°55'0 0.0
2018-Feb-15 05:59N 49°44' W 124°55'510.6
2018-Feb-15 05:30N 49°46' W 124°48'714.7
2018-Feb-15 05:00N 49°49' W 124°37'4 7.7
2018-Feb-15 04:31N 49°50' W 124°32'4 8.3
2018-Feb-15 04:00N 49°49' W 124°38'714.4
2018-Feb-15 03:30N 49°46' W 124°48'5 9.7
2018-Feb-15 03:00N 49°44' W 124°55'0 0.0
2018-Feb-15 02:30N 49°44' W 124°55'510.8
2018-Feb-15 02:00N 49°46' W 124°48'714.6
2018-Feb-15 01:31N 49°49' W 124°37'4 7.1
2018-Feb-15 01:00N 49°50' W 124°32'1 1.4
2018-Feb-15 00:31N 49°50' W 124°33'714.1
2018-Feb-15 00:00N 49°47' W 124°43'714.5
2018-Feb-14 23:30N 49°45' W 124°54'1 2.3
2018-Feb-14 23:00N 49°44' W 124°55'0 0.0
2018-Feb-14 22:30N 49°44' W 124°55'0 0.0
2018-Feb-14 22:00N 49°44' W 124°55'0 0.0
2018-Feb-14 21:30N 49°44' W 124°55'1 1.5
2018-Feb-14 21:00N 49°45' W 124°54'714.1
2018-Feb-14 20:30N 49°47' W 124°44'713.7
2018-Feb-14 20:00N 49°49' W 124°34'2 3.1
2018-Feb-14 19:30N 49°50' W 124°32'3 5.7
2018-Feb-14 19:00N 49°49' W 124°36'713.4
2018-Feb-14 18:30N 49°46' W 124°45'611.9
2018-Feb-14 18:01N 49°45' W 124°54'1 1.7
2018-Feb-14 17:29N 49°44' W 124°55'5 9.9
2018-Feb-14 17:00N 49°46' W 124°49'612.5
2018-Feb-14 16:30N 49°48' W 124°39'510.4
2018-Feb-14 16:00N 49°50' W 124°32'0 0.0
2018-Feb-14 15:30N 49°50' W 124°32'612.0
2018-Feb-14 15:00N 49°48' W 124°41'713.8
2018-Feb-14 14:30N 49°45' W 124°50'3 6.2
2018-Feb-14 13:59N 49°44' W 124°55'0 0.0
2018-Feb-14 13:29N 49°44' W 124°55'0 0.0
2018-Feb-14 12:59N 49°44' W 124°55'0 0.0
2018-Feb-14 12:29N 49°44' W 124°55'0 0.0
2018-Feb-14 11:59N 49°44' W 124°55'0 0.0
2018-Feb-14 11:29N 49°44' W 124°55'0 0.0
2018-Feb-14 10:59N 49°44' W 124°55'0 0.0
2018-Feb-14 10:29N 49°44' W 124°55'0 0.0
2018-Feb-14 09:59N 49°44' W 124°55'0 0.0
2018-Feb-14 09:29N 49°44' W 124°55'0 0.0
2018-Feb-14 08:59N 49°44' W 124°55'0 0.0
2018-Feb-14 08:29N 49°44' W 124°55'0 0.0
2018-Feb-14 07:59N 49°44' W 124°55'0 0.0
2018-Feb-14 07:29N 49°44' W 124°55'0 0.0
2018-Feb-14 06:56N 49°44' W 124°55'0 0.0
2018-Feb-14 06:29N 49°44' W 124°55'1 2.1
2018-Feb-14 06:01N 49°45' W 124°54'611.9
2018-Feb-14 05:30N 49°46' W 124°45'714.1
2018-Feb-14 05:00N 49°50' W 124°35'2 4.3
2018-Feb-14 04:31N 49°50' W 124°32'612.4
2018-Feb-14 04:00N 49°46' W 124°40'611.1
2018-Feb-14 03:30N 49°45' W 124°49'4 8.9
2018-Feb-14 03:00N 49°44' W 124°55'0 0.0
2018-Feb-14 02:29N 49°44' W 124°55'511.4
2018-Feb-14 02:00N 49°46' W 124°47'714.6
2018-Feb-14 01:31N 49°49' W 124°37'3 6.9
2018-Feb-14 01:00N 49°50' W 124°32'1 2.7
2018-Feb-14 00:30N 49°50' W 124°34'713.5
2018-Feb-14 00:00N 49°47' W 124°44'713.8
2018-Feb-13 23:30N 49°45' W 124°54'1 2.5
2018-Feb-13 23:00N 49°44' W 124°55'0 0.0
2018-Feb-13 22:30N 49°44' W 124°55'0 0.0
2018-Feb-13 21:55N 49°44' W 124°55'0 0.0
2018-Feb-13 21:28N 49°44' W 124°55'1 1.7
2018-Feb-13 21:00N 49°45' W 124°54'714.0
2018-Feb-13 20:30N 49°48' W 124°44'714.6
2018-Feb-13 20:00N 49°50' W 124°33'1 2.3
2018-Feb-13 19:30N 49°50' W 124°32'4 8.6
2018-Feb-13 19:00N 49°49' W 124°38'611.5
2018-Feb-13 18:30N 49°47' W 124°46'611.9
2018-Feb-13 18:00N 49°45' W 124°55'0 0.5
2018-Feb-13 17:30N 49°44' W 124°55'1 2.7
2018-Feb-13 17:00N 49°45' W 124°53'816.5
2018-Feb-13 16:30N 49°48' W 124°41'713.3
2018-Feb-13 16:01N 49°50' W 124°32'0 0.0
2018-Feb-13 15:31N 49°50' W 124°32'712.1
2018-Feb-13 14:58N 49°48' W 124°42'613.5
2018-Feb-13 14:31N 49°46' W 124°50'3 6.8
2018-Feb-13 14:00N 49°44' W 124°55'0 0.0
2018-Feb-13 13:30N 49°44' W 124°55'0 0.0
2018-Feb-13 13:00N 49°44' W 124°55'0 0.0
2018-Feb-13 12:30N 49°44' W 124°55'0 0.0
2018-Feb-13 12:00N 49°44' W 124°55'0 0.0
2018-Feb-13 11:30N 49°44' W 124°55'0 0.0
2018-Feb-13 11:00N 49°44' W 124°55'0 0.0
2018-Feb-13 10:21N 49°44' W 124°55'0 0.0
2018-Feb-13 10:00N 49°44' W 124°55'0 0.0
2018-Feb-13 09:30N 49°44' W 124°55'0 0.0
2018-Feb-13 09:00N 49°44' W 124°55'0 0.0
2018-Feb-13 08:30N 49°44' W 124°55'0 0.0
2018-Feb-13 08:00N 49°44' W 124°55'0 0.0
2018-Feb-13 07:30N 49°44' W 124°55'0 0.0
2018-Feb-13 07:00N 49°44' W 124°55'0 0.0
2018-Feb-13 06:24N 49°44' W 124°55'0 0.0
2018-Feb-13 06:00N 49°44' W 124°55'510.5
2018-Feb-13 05:30N 49°46' W 124°48'714.8
2018-Feb-13 05:01N 49°49' W 124°37'4 7.3
2018-Feb-13 04:30N 49°50' W 124°32'510.8
2018-Feb-13 04:00N 49°48' W 124°40'713.7
2018-Feb-13 03:31N 49°46' W 124°50'4 7.9
2018-Feb-13 03:00N 49°44' W 124°55'0 0.0
2018-Feb-13 02:30N 49°44' W 124°55'611.8
2018-Feb-13 02:01N 49°46' W 124°47'714.1
2018-Feb-13 01:30N 49°49' W 124°37'3 6.5
2018-Feb-13 01:00N 49°50' W 124°32'2 4.7
2018-Feb-13 00:30N 49°49' W 124°35'713.3
2018-Feb-13 00:00N 49°47' W 124°45'713.2
2018-Feb-12 23:30N 49°45' W 124°54'1 1.3
2018-Feb-12 23:00N 49°44' W 124°55'0 0.0
2018-Feb-12 22:30N 49°44' W 124°55'0 0.0
2018-Feb-12 21:59N 49°44' W 124°55'0 0.0
2018-Feb-12 21:26N 49°44' W 124°55'1 1.2
2018-Feb-12 21:00N 49°45' W 124°55'714.0
2018-Feb-12 20:31N 49°47' W 124°44'714.2
2018-Feb-12 20:00N 49°49' W 124°34'2 3.1
2018-Feb-12 19:30N 49°50' W 124°32'2 3.7
2018-Feb-12 19:00N 49°50' W 124°35'713.2
2018-Feb-12 18:30N 49°47' W 124°44'713.7
2018-Feb-12 18:00N 49°45' W 124°54'1 1.9
2018-Feb-12 17:30N 49°44' W 124°55'4 7.2
2018-Feb-12 17:00N 49°46' W 124°50'713.7
2018-Feb-12 16:30N 49°48' W 124°40'611.5
2018-Feb-12 16:01N 49°50' W 124°32'1 2.2
2018-Feb-12 15:30N 49°50' W 124°33'611.7
2018-Feb-12 14:59N 49°48' W 124°42'612.0
2018-Feb-12 14:30N 49°46' W 124°51'3 5.9
2018-Feb-12 13:58N 49°44' W 124°55'0 0.0
2018-Feb-12 13:28N 49°44' W 124°55'0 0.0
2018-Feb-12 12:58N 49°44' W 124°55'0 0.0
2018-Feb-12 12:22N 49°44' W 124°55'0 0.0
2018-Feb-12 11:58N 49°44' W 124°55'0 0.0
2018-Feb-12 11:22N 49°44' W 124°55'0 0.0
2018-Feb-12 10:55N 49°44' W 124°55'0 0.0
2018-Feb-12 10:28N 49°44' W 124°55'0 0.0
2018-Feb-12 09:55N 49°44' W 124°55'0 0.0
2018-Feb-12 09:28N 49°44' W 124°55'0 0.0
2018-Feb-12 08:58N 49°44' W 124°55'0 0.0
2018-Feb-12 08:28N 49°44' W 124°55'0 0.0
2018-Feb-12 07:58N 49°44' W 124°55'0 0.0
2018-Feb-12 07:28N 49°44' W 124°55'0 0.0
2018-Feb-12 06:58N 49°44' W 124°55'0 0.0
2018-Feb-12 06:28N 49°44' W 124°55'1 1.3
2018-Feb-12 06:00N 49°45' W 124°54'612.8
2018-Feb-12 05:30N 49°47' W 124°45'713.6
2018-Feb-12 05:00N 49°49' W 124°35'2 4.9
2018-Feb-12 04:30N 49°50' W 124°32'611.6
2018-Feb-12 04:00N 49°48' W 124°40'612.2
2018-Feb-12 03:30N 49°46' W 124°49'4 8.5
2018-Feb-12 03:00N 49°44' W 124°55'0 0.0
2018-Feb-12 02:30N 49°44' W 124°55'510.8
2018-Feb-12 02:00N 49°46' W 124°48'714.2
2018-Feb-12 01:30N 49°49' W 124°37'4 7.5
2018-Feb-12 01:00N 49°50' W 124°32'2 3.0
2018-Feb-12 00:30N 49°50' W 124°34'714.5
2018-Feb-12 00:00N 49°47' W 124°44'714.1
2018-Feb-11 23:30N 49°45' W 124°55'0 0.8
2018-Feb-11 23:00N 49°44' W 124°55'0 0.0
2018-Feb-11 22:30N 49°44' W 124°55'0 0.0
2018-Feb-11 21:57N 49°44' W 124°55'0 0.0
2018-Feb-11 21:30N 49°44' W 124°55'0 0.6
2018-Feb-11 21:00N 49°44' W 124°55'714.1
2018-Feb-11 20:30N 49°47' W 124°45'714.2
2018-Feb-11 20:00N 49°49' W 124°34'2 3.3
2018-Feb-11 19:29N 49°50' W 124°32'1 2.4
2018-Feb-11 19:00N 49°49' W 124°33'714.5
2018-Feb-11 18:30N 49°47' W 124°44'714.1
2018-Feb-11 18:00N 49°45' W 124°54'1 1.6
2018-Feb-11 17:30N 49°44' W 124°55'3 6.8
2018-Feb-11 17:00N 49°46' W 124°50'713.9
2018-Feb-11 16:30N 49°48' W 124°40'611.8
2018-Feb-11 16:00N 49°50' W 124°32'1 1.8
2018-Feb-11 15:30N 49°50' W 124°33'612.1
2018-Feb-11 15:01N 49°48' W 124°42'612.2
2018-Feb-11 14:30N 49°46' W 124°51'3 6.0
2018-Feb-11 13:59N 49°44' W 124°55'0 0.0
2018-Feb-11 13:29N 49°44' W 124°55'0 0.0
2018-Feb-11 12:59N 49°44' W 124°55'0 0.0
2018-Feb-11 12:29N 49°44' W 124°55'0 0.0
2018-Feb-11 11:59N 49°44' W 124°55'0 0.0
2018-Feb-11 11:29N 49°44' W 124°55'0 0.0
2018-Feb-11 10:56N 49°44' W 124°55'0 0.0
2018-Feb-11 10:29N 49°44' W 124°55'0 0.0
2018-Feb-11 09:59N 49°44' W 124°55'0 0.0
2018-Feb-11 09:29N 49°44' W 124°55'0 0.0
2018-Feb-11 08:59N 49°44' W 124°55'0 0.0
2018-Feb-11 08:29N 49°44' W 124°55'0 0.0
2018-Feb-11 07:59N 49°44' W 124°55'0 0.0
2018-Feb-11 07:29N 49°44' W 124°55'0 0.0
2018-Feb-11 06:59N 49°44' W 124°55'0 0.0
2018-Feb-11 06:23N 49°44' W 124°55'0 0.0
2018-Feb-11 06:00N 49°44' W 124°55'510.6
2018-Feb-11 05:30N 49°46' W 124°48'714.2
2018-Feb-11 05:00N 49°49' W 124°37'4 7.6
2018-Feb-11 04:30N 49°50' W 124°32'4 8.3
2018-Feb-11 04:00N 49°49' W 124°38'714.4
2018-Feb-11 03:30N 49°45' W 124°48'5 9.9
2018-Feb-11 03:00N 49°44' W 124°55'0 0.1
2018-Feb-11 02:30N 49°44' W 124°55'611.5
2018-Feb-11 02:01N 49°46' W 124°47'  
Track history (hours):
 
Tides and Currents Weather Stations Pressure Air Temp Water Temp Dewpoint Dewpoint Depression Visibility Wind Speed Wind Dir Waves Ship Positions

Salish Orca

Last reported at 2018-Feb-21 01:30 UTC. Time now 2018-Feb-21 01:56 UTC.
Position N 49°50' W 124°33'.

Length 107 m; draft 4.6 m.

Type: Passenger vessel. MMSI: 316030627.

Date/timePositionNaut miles runAvg speedWind from/ knotsBaromVisibWave heightAir tempDewpointWater temp
2018-Feb-21 01:30N 49°50' W 124°33'1 1.2
2018-Feb-21 01:01N 49°50' W 124°32'3 5.0
2018-Feb-21 00:31N 49°49' W 124°36'510.8
2018-Feb-21 00:00N 49°47' W 124°44'713.6
2018-Feb-20 23:31N 49°45' W 124°53'1 2.6
2018-Feb-20 23:00N 49°44' W 124°55'0 0.0
2018-Feb-20 22:30N 49°44' W 124°55'0 0.0
2018-Feb-20 22:00N 49°44' W 124°55'0 0.0
2018-Feb-20 21:30N 49°44' W 124°55'1 1.8
2018-Feb-20 21:00N 49°45' W 124°54'713.8
2018-Feb-20 20:30N 49°47' W 124°44'713.1
2018-Feb-20 20:00N 49°49' W 124°35'2 3.7
2018-Feb-20 19:30N 49°50' W 124°32'3 5.5
2018-Feb-20 19:01N 49°49' W 124°36'612.7
2018-Feb-20 18:30N 49°47' W 124°45'612.2
2018-Feb-20 18:01N 49°45' W 124°54'1 2.0
2018-Feb-20 17:30N 49°44' W 124°55'3 6.3
2018-Feb-20 17:01N 49°45' W 124°51'714.3
2018-Feb-20 16:31N 49°48' W 124°41'612.0
2018-Feb-20 16:00N 49°50' W 124°32'0 0.1
2018-Feb-20 15:30N 49°50' W 124°32'612.3
2018-Feb-20 15:00N 49°48' W 124°41'713.7
2018-Feb-20 14:30N 49°45' W 124°51'3 6.5
2018-Feb-20 14:00N 49°44' W 124°55'0 0.0
2018-Feb-20 13:29N 49°44' W 124°55'0 0.0
2018-Feb-20 12:59N 49°44' W 124°55'0 0.0
2018-Feb-20 12:29N 49°44' W 124°55'0 0.0
2018-Feb-20 11:59N 49°44' W 124°55'0 0.0
2018-Feb-20 11:29N 49°44' W 124°55'0 0.0
2018-Feb-20 10:59N 49°44' W 124°55'0 0.0
2018-Feb-20 10:29N 49°44' W 124°55'0 0.0
2018-Feb-20 09:59N 49°44' W 124°55'0 0.0
2018-Feb-20 09:29N 49°44' W 124°55'0 0.0
2018-Feb-20 08:59N 49°44' W 124°55'0 0.0
2018-Feb-20 08:29N 49°44' W 124°55'0 0.0
2018-Feb-20 07:59N 49°44' W 124°55'0 0.0
2018-Feb-20 07:28N 49°44' W 124°55'0 0.0
2018-Feb-20 06:56N 49°44' W 124°55'0 0.0
2018-Feb-20 06:29N 49°44' W 124°55'0 0.0
2018-Feb-20 06:00N 49°44' W 124°55'511.2
2018-Feb-20 05:31N 49°46' W 124°47'714.1
2018-Feb-20 05:01N 49°49' W 124°37'4 7.4
2018-Feb-20 04:31N 49°50' W 124°32'5 9.2
2018-Feb-20 04:00N 49°48' W 124°39'714.0
2018-Feb-20 03:30N 49°46' W 124°49'5 9.2
2018-Feb-20 03:00N 49°44' W 124°55'0 0.6
2018-Feb-20 02:30N 49°45' W 124°55'612.6
2018-Feb-20 02:00N 49°47' W 124°46'713.8
2018-Feb-20 01:30N 49°49' W 124°35'2 5.1
2018-Feb-20 01:00N 49°50' W 124°32'1 2.4
2018-Feb-20 00:30N 49°49' W 124°33'713.6
2018-Feb-20 00:00N 49°47' W 124°43'713.9
2018-Feb-19 23:31N 49°45' W 124°53'1 2.7
2018-Feb-19 23:01N 49°44' W 124°55'0 0.0
2018-Feb-19 22:28N 49°44' W 124°55'0 0.0
2018-Feb-19 21:58N 49°44' W 124°55'0 0.0
2018-Feb-19 21:22N 49°44' W 124°55'0 1.2
2018-Feb-19 21:00N 49°45' W 124°55'714.0
2018-Feb-19 20:30N 49°47' W 124°45'714.1
2018-Feb-19 20:00N 49°49' W 124°34'2 3.4
2018-Feb-19 19:30N 49°50' W 124°32'2 4.6
2018-Feb-19 18:59N 49°49' W 124°35'613.4
2018-Feb-19 18:30N 49°47' W 124°45'713.4
2018-Feb-19 18:00N 49°45' W 124°54'1 1.4
2018-Feb-19 17:30N 49°44' W 124°55'3 6.6
2018-Feb-19 16:59N 49°46' W 124°51'714.3
2018-Feb-19 16:30N 49°48' W 124°40'611.8
2018-Feb-19 16:00N 49°50' W 124°32'0 0.1
2018-Feb-19 15:30N 49°50' W 124°32'612.2
2018-Feb-19 15:00N 49°48' W 124°41'713.7
2018-Feb-19 14:30N 49°46' W 124°51'3 5.8
2018-Feb-19 13:57N 49°44' W 124°55'0 0.0
2018-Feb-19 13:27N 49°44' W 124°55'0 0.0
2018-Feb-19 12:57N 49°44' W 124°55'0 0.0
2018-Feb-19 12:27N 49°44' W 124°55'0 0.0
2018-Feb-19 11:57N 49°44' W 124°55'0 0.0
2018-Feb-19 11:27N 49°44' W 124°55'0 0.0
2018-Feb-19 10:57N 49°44' W 124°55'0 0.0
2018-Feb-19 10:27N 49°44' W 124°55'0 0.0
2018-Feb-19 09:57N 49°44' W 124°55'0 0.0
2018-Feb-19 09:27N 49°44' W 124°55'0 0.0
2018-Feb-19 08:57N 49°44' W 124°55'0 0.0
2018-Feb-19 08:21N 49°44' W 124°55'0 0.0
2018-Feb-19 07:57N 49°44' W 124°55'0 0.0
2018-Feb-19 07:27N 49°44' W 124°55'0 0.0
2018-Feb-19 06:57N 49°44' W 124°55'0 0.0
2018-Feb-19 06:27N 49°44' W 124°55'0 0.0
2018-Feb-19 06:00N 49°44' W 124°55'511.0
2018-Feb-19 05:30N 49°46' W 124°48'714.1
2018-Feb-19 05:00N 49°49' W 124°37'4 7.5
2018-Feb-19 04:30N 49°50' W 124°32'5 9.8
2018-Feb-19 04:01N 49°50' W 124°39'713.6
2018-Feb-19 03:30N 49°47' W 124°49'5 9.5
2018-Feb-19 03:00N 49°44' W 124°55'0 0.0
2018-Feb-19 02:30N 49°44' W 124°55'612.7
2018-Feb-19 02:00N 49°47' W 124°46'714.7
2018-Feb-19 01:30N 49°49' W 124°36'2 5.0
2018-Feb-19 01:01N 49°50' W 124°32'2 4.8
2018-Feb-19 00:31N 49°50' W 124°36'612.9
2018-Feb-19 00:01N 49°48' W 124°45'612.9
2018-Feb-18 23:31N 49°45' W 124°54'1 1.6
2018-Feb-18 22:50N 49°44' W 124°55'0 0.0
2018-Feb-18 22:23N 49°44' W 124°55'0 0.0
2018-Feb-18 21:56N 49°44' W 124°55'0 0.0
2018-Feb-18 21:23N 49°44' W 124°55'1 1.7
2018-Feb-18 21:00N 49°45' W 124°55'713.4
2018-Feb-18 20:31N 49°47' W 124°45'714.4
2018-Feb-18 20:00N 49°49' W 124°34'2 3.3
2018-Feb-18 19:30N 49°50' W 124°32'3 6.3
2018-Feb-18 19:00N 49°49' W 124°36'713.1
2018-Feb-18 18:30N 49°48' W 124°46'612.4
2018-Feb-18 18:00N 49°45' W 124°55'0 0.9
2018-Feb-18 17:30N 49°44' W 124°55'4 7.7
2018-Feb-18 17:00N 49°46' W 124°50'713.6
2018-Feb-18 16:31N 49°48' W 124°40'611.0
2018-Feb-18 16:00N 49°50' W 124°32'2 4.1
2018-Feb-18 15:30N 49°49' W 124°35'612.7
2018-Feb-18 15:00N 49°47' W 124°44'713.6
2018-Feb-18 14:30N 49°45' W 124°54'1 1.9
2018-Feb-18 14:00N 49°44' W 124°55'0 0.0
2018-Feb-18 13:25N 49°44' W 124°55'0 0.0
2018-Feb-18 12:55N 49°44' W 124°55'0 0.0
2018-Feb-18 12:25N 49°44' W 124°55'0 0.0
2018-Feb-18 11:55N 49°44' W 124°55'0 0.0
2018-Feb-18 11:19N 49°44' W 124°55'0 0.0
2018-Feb-18 10:55N 49°44' W 124°55'0 0.0
2018-Feb-18 10:19N 49°44' W 124°55'0 0.0
2018-Feb-18 09:49N 49°44' W 124°55'0 0.0
2018-Feb-18 09:25N 49°44' W 124°55'0 0.0
2018-Feb-18 08:55N 49°44' W 124°55'0 0.0
2018-Feb-18 08:25N 49°44' W 124°55'0 0.0
2018-Feb-18 07:55N 49°44' W 124°55'0 0.0
2018-Feb-18 07:19N 49°44' W 124°55'0 0.0
2018-Feb-18 06:55N 49°44' W 124°55'0 0.0
2018-Feb-18 06:25N 49°44' W 124°55'2 4.0
2018-Feb-18 06:00N 49°45' W 124°53'611.1
2018-Feb-18 05:30N 49°46' W 124°44'612.9
2018-Feb-18 05:00N 49°49' W 124°36'3 5.8
2018-Feb-18 04:30N 49°50' W 124°32'612.3
2018-Feb-18 03:59N 49°49' W 124°42'612.9
2018-Feb-18 03:30N 49°46' W 124°50'4 7.5
2018-Feb-18 03:00N 49°44' W 124°55'0 0.1
2018-Feb-18 02:30N 49°44' W 124°55'611.6
2018-Feb-18 02:00N 49°47' W 124°47'713.8
2018-Feb-18 01:31N 49°49' W 124°37'4 7.0
2018-Feb-18 01:00N 49°50' W 124°32'1 2.7
2018-Feb-18 00:30N 49°50' W 124°34'714.1
2018-Feb-18 00:00N 49°47' W 124°44'713.8
2018-Feb-17 23:30N 49°45' W 124°54'1 1.2
2018-Feb-17 22:42N 49°44' W 124°55'0 0.0
2018-Feb-17 22:18N 49°44' W 124°55'0 0.0
2018-Feb-17 21:48N 49°44' W 124°55'0 0.0
2018-Feb-17 21:30N 49°44' W 124°55'0 0.0
2018-Feb-17 20:59N 49°44' W 124°55'611.7
2018-Feb-17 20:30N 49°47' W 124°47'815.9
2018-Feb-17 20:00N 49°49' W 124°36'3 5.3
2018-Feb-17 19:30N 49°50' W 124°32'4 7.3
2018-Feb-17 19:00N 49°49' W 124°37'611.4
2018-Feb-17 18:30N 49°46' W 124°45'611.9
2018-Feb-17 18:00N 49°45' W 124°54'1 1.9
2018-Feb-17 17:30N 49°44' W 124°55'713.4
2018-Feb-17 17:00N 49°44' W 124°45'5 9.9
2018-Feb-17 16:30N 49°47' W 124°39'611.6
2018-Feb-17 16:00N 49°50' W 124°32'2 3.1
2018-Feb-17 15:30N 49°49' W 124°34'612.7
2018-Feb-17 15:00N 49°46' W 124°42'611.5
2018-Feb-17 14:28N 49°45' W 124°52'3 4.6
2018-Feb-17 13:56N 49°44' W 124°55'0 0.0
2018-Feb-17 13:29N 49°44' W 124°55'0 0.0
2018-Feb-17 12:50N 49°44' W 124°55'0 0.0
2018-Feb-17 12:26N 49°44' W 124°55'0 0.0
2018-Feb-17 11:59N 49°44' W 124°55'0 0.0
2018-Feb-17 11:29N 49°44' W 124°55'0 0.0
2018-Feb-17 10:59N 49°44' W 124°55'0 0.0
2018-Feb-17 10:29N 49°44' W 124°55'0 0.0
2018-Feb-17 09:59N 49°44' W 124°55'0 0.0
2018-Feb-17 09:29N 49°44' W 124°55'0 0.0
2018-Feb-17 08:59N 49°44' W 124°55'0 0.0
2018-Feb-17 08:29N 49°44' W 124°55'0 0.0
2018-Feb-17 07:59N 49°44' W 124°55'0 0.0
2018-Feb-17 07:29N 49°44' W 124°55'0 0.0
2018-Feb-17 06:59N 49°44' W 124°55'0 0.0
2018-Feb-17 06:29N 49°44' W 124°55'0 0.0
2018-Feb-17 06:00N 49°44' W 124°55'611.6
2018-Feb-17 05:30N 49°47' W 124°47'713.7
2018-Feb-17 05:00N 49°49' W 124°37'4 7.2
2018-Feb-17 04:30N 49°50' W 124°32'5 9.8
2018-Feb-17 04:00N 49°48' W 124°39'714.4
2018-Feb-17 03:30N 49°46' W 124°49'4 8.0
2018-Feb-17 03:00N 49°44' W 124°55'0 0.1
2018-Feb-17 02:30N 49°44' W 124°55'612.7
2018-Feb-17 02:00N 49°47' W 124°46'713.5
2018-Feb-17 01:30N 49°49' W 124°36'3 6.2
2018-Feb-17 01:00N 49°50' W 124°32'2 4.7
2018-Feb-17 00:30N 49°49' W 124°35'713.0
2018-Feb-17 00:00N 49°47' W 124°45'713.0
2018-Feb-16 23:30N 49°45' W 124°54'1 1.5
2018-Feb-16 22:58N 49°44' W 124°55'0 0.0
2018-Feb-16 22:28N 49°44' W 124°55'0 0.0
2018-Feb-16 21:58N 49°44' W 124°55'0 0.0
2018-Feb-16 21:22N 49°44' W 124°55'0 1.1
2018-Feb-16 21:00N 49°45' W 124°55'713.5
2018-Feb-16 20:30N 49°47' W 124°45'713.7
2018-Feb-16 20:00N 49°49' W 124°35'2 4.5
2018-Feb-16 19:30N 49°50' W 124°32'2 3.5
2018-Feb-16 19:00N 49°49' W 124°34'714.2
2018-Feb-16 18:30N 49°47' W 124°45'713.9
2018-Feb-16 18:00N 49°45' W 124°55'0 0.8
2018-Feb-16 17:30N 49°44' W 124°55'3 6.3
2018-Feb-16 17:00N 49°46' W 124°51'714.6
2018-Feb-16 16:30N 49°48' W 124°40'610.6
2018-Feb-16 15:58N 49°50' W 124°32'0 0.2
2018-Feb-16 15:30N 49°50' W 124°32'712.8
2018-Feb-16 15:00N 49°48' W 124°41'613.1
2018-Feb-16 14:30N 49°46' W 124°51'3 6.4
2018-Feb-16 14:00N 49°44' W 124°55'0 0.0
2018-Feb-16 13:30N 49°44' W 124°55'0 0.0
2018-Feb-16 12:57N 49°44' W 124°55'0 0.0
2018-Feb-16 12:21N 49°44' W 124°55'0 0.0
2018-Feb-16 11:57N 49°44' W 124°55'0 0.0
2018-Feb-16 11:27N 49°44' W 124°55'0 0.0
2018-Feb-16 10:57N 49°44' W 124°55'0 0.0
2018-Feb-16 10:27N 49°44' W 124°55'0 0.0
2018-Feb-16 09:57N 49°44' W 124°55'0 0.0
2018-Feb-16 09:27N 49°44' W 124°55'0 0.0
2018-Feb-16 09:00N 49°44' W 124°55'0 0.0
2018-Feb-16 08:27N 49°44' W 124°55'0 0.0
2018-Feb-16 07:57N 49°44' W 124°55'0 0.0
2018-Feb-16 07:27N 49°44' W 124°55'0 0.0
2018-Feb-16 06:57N 49°44' W 124°55'0 0.0
2018-Feb-16 06:30N 49°44' W 124°55'0 0.0
2018-Feb-16 06:00N 49°44' W 124°55'612.0
2018-Feb-16 05:30N 49°47' W 124°47'713.7
2018-Feb-16 05:00N 49°49' W 124°37'3 6.7
2018-Feb-16 04:30N 49°50' W 124°32'5 9.9
2018-Feb-16 04:00N 49°48' W 124°39'713.6
2018-Feb-16 03:31N 49°46' W 124°49'4 8.9
2018-Feb-16 03:00N 49°44' W 124°55'0 0.1
2018-Feb-16 02:30N 49°44' W 124°55'612.3
2018-Feb-16 02:00N 49°47' W 124°47'713.4
2018-Feb-16 01:30N 49°49' W 124°37'3 6.9
2018-Feb-16 01:00N 49°50' W 124°32'1 2.6
2018-Feb-16 00:30N 49°49' W 124°34'714.0
2018-Feb-16 00:00N 49°47' W 124°44'714.3
2018-Feb-15 23:31N 49°45' W 124°54'1 1.6
2018-Feb-15 23:00N 49°44' W 124°55'0 0.0
2018-Feb-15 22:30N 49°44' W 124°55'0 0.0
2018-Feb-15 21:56N 49°44' W 124°55'0 0.0
2018-Feb-15 21:26N 49°44' W 124°55'0 0.6
2018-Feb-15 21:00N 49°44' W 124°55'713.4
2018-Feb-15 20:30N 49°47' W 124°45'714.1
2018-Feb-15 20:00N 49°49' W 124°35'2 4.6
2018-Feb-15 19:30N 49°50' W 124°32'2 3.5
2018-Feb-15 19:00N 49°49' W 124°34'613.0
2018-Feb-15 18:30N 49°47' W 124°44'713.2
2018-Feb-15 18:00N 49°45' W 124°54'1 2.6
2018-Feb-15 17:30N 49°44' W 124°55'4 7.8
2018-Feb-15 17:00N 49°46' W 124°50'713.4
2018-Feb-15 16:30N 49°48' W 124°40'611.2
2018-Feb-15 16:00N 49°50' W 124°32'0 0.1
2018-Feb-15 15:30N 49°50' W 124°32'612.3
2018-Feb-15 15:00N 49°48' W 124°41'713.3
2018-Feb-15 14:30N 49°46' W 124°51'3 6.7
2018-Feb-15 14:00N 49°44' W 124°55'0 0.0
2018-Feb-15 13:30N 49°44' W 124°55'0 0.0
2018-Feb-15 12:52N 49°44' W 124°55'0 0.0
2018-Feb-15 12:28N 49°44' W 124°55'0 0.0
2018-Feb-15 11:58N 49°44' W 124°55'0 0.0
2018-Feb-15 11:28N 49°44' W 124°55'0 0.0
2018-Feb-15 10:58N 49°44' W 124°55'0 0.0
2018-Feb-15 10:16N 49°44' W 124°55'0 0.0
2018-Feb-15 09:58N 49°44' W 124°55'0 0.0
2018-Feb-15 09:25N 49°44' W 124°55'0 0.0
2018-Feb-15 08:58N 49°44' W 124°55'0 0.0
2018-Feb-15 08:28N 49°44' W 124°55'0 0.0
2018-Feb-15 07:52N 49°44' W 124°55'0 0.0
2018-Feb-15 07:28N 49°44' W 124°55'0 0.0
2018-Feb-15 06:58N 49°44' W 124°55'0 0.0
2018-Feb-15 06:25N 49°44' W 124°55'0 0.0
2018-Feb-15 05:59N 49°44' W 124°55'510.6
2018-Feb-15 05:30N 49°46' W 124°48'714.7
2018-Feb-15 05:00N 49°49' W 124°37'4 7.7
2018-Feb-15 04:31N 49°50' W 124°32'4 8.3
2018-Feb-15 04:00N 49°49' W 124°38'714.4
2018-Feb-15 03:30N 49°46' W 124°48'5 9.7
2018-Feb-15 03:00N 49°44' W 124°55'0 0.0
2018-Feb-15 02:30N 49°44' W 124°55'510.8
2018-Feb-15 02:00N 49°46' W 124°48'714.6
2018-Feb-15 01:31N 49°49' W 124°37'4 7.1
2018-Feb-15 01:00N 49°50' W 124°32'1 1.4
2018-Feb-15 00:31N 49°50' W 124°33'714.1
2018-Feb-15 00:00N 49°47' W 124°43'714.5
2018-Feb-14 23:30N 49°45' W 124°54'1 2.3
2018-Feb-14 23:00N 49°44' W 124°55'0 0.0
2018-Feb-14 22:30N 49°44' W 124°55'0 0.0
2018-Feb-14 22:00N 49°44' W 124°55'0 0.0
2018-Feb-14 21:30N 49°44' W 124°55'1 1.5
2018-Feb-14 21:00N 49°45' W 124°54'714.1
2018-Feb-14 20:30N 49°47' W 124°44'713.7
2018-Feb-14 20:00N 49°49' W 124°34'2 3.1
2018-Feb-14 19:30N 49°50' W 124°32'3 5.7
2018-Feb-14 19:00N 49°49' W 124°36'713.4
2018-Feb-14 18:30N 49°46' W 124°45'611.9
2018-Feb-14 18:01N 49°45' W 124°54'1 1.7
2018-Feb-14 17:29N 49°44' W 124°55'5 9.9
2018-Feb-14 17:00N 49°46' W 124°49'612.5
2018-Feb-14 16:30N 49°48' W 124°39'510.4
2018-Feb-14 16:00N 49°50' W 124°32'0 0.0
2018-Feb-14 15:30N 49°50' W 124°32'612.0
2018-Feb-14 15:00N 49°48' W 124°41'713.8
2018-Feb-14 14:30N 49°45' W 124°50'3 6.2
2018-Feb-14 13:59N 49°44' W 124°55'0 0.0
2018-Feb-14 13:29N 49°44' W 124°55'0 0.0
2018-Feb-14 12:59N 49°44' W 124°55'0 0.0
2018-Feb-14 12:29N 49°44' W 124°55'0 0.0
2018-Feb-14 11:59N 49°44' W 124°55'0 0.0
2018-Feb-14 11:29N 49°44' W 124°55'0 0.0
2018-Feb-14 10:59N 49°44' W 124°55'0 0.0
2018-Feb-14 10:29N 49°44' W 124°55'0 0.0
2018-Feb-14 09:59N 49°44' W 124°55'0 0.0
2018-Feb-14 09:29N 49°44' W 124°55'0 0.0
2018-Feb-14 08:59N 49°44' W 124°55'0 0.0
2018-Feb-14 08:29N 49°44' W 124°55'0 0.0
2018-Feb-14 07:59N 49°44' W 124°55'0 0.0
2018-Feb-14 07:29N 49°44' W 124°55'0 0.0
2018-Feb-14 06:56N 49°44' W 124°55'0 0.0
2018-Feb-14 06:29N 49°44' W 124°55'1 2.1
2018-Feb-14 06:01N 49°45' W 124°54'611.9
2018-Feb-14 05:30N 49°46' W 124°45'714.1
2018-Feb-14 05:00N 49°50' W 124°35'2 4.3
2018-Feb-14 04:31N 49°50' W 124°32'612.4
2018-Feb-14 04:00N 49°46' W 124°40'611.1
2018-Feb-14 03:30N 49°45' W 124°49'4 8.9
2018-Feb-14 03:00N 49°44' W 124°55'0 0.0
2018-Feb-14 02:29N 49°44' W 124°55'511.4
2018-Feb-14 02:00N 49°46' W 124°47'714.6
2018-Feb-14 01:31N 49°49' W 124°37'3 6.9
2018-Feb-14 01:00N 49°50' W 124°32'1 2.7
2018-Feb-14 00:30N 49°50' W 124°34'713.5
2018-Feb-14 00:00N 49°47' W 124°44'713.8
2018-Feb-13 23:30N 49°45' W 124°54'1 2.5
2018-Feb-13 23:00N 49°44' W 124°55'0 0.0
2018-Feb-13 22:30N 49°44' W 124°55'0 0.0
2018-Feb-13 21:55N 49°44' W 124°55'0 0.0
2018-Feb-13 21:28N 49°44' W 124°55'1 1.7
2018-Feb-13 21:00N 49°45' W 124°54'714.0
2018-Feb-13 20:30N 49°48' W 124°44'714.6
2018-Feb-13 20:00N 49°50' W 124°33'1 2.3
2018-Feb-13 19:30N 49°50' W 124°32'4 8.6
2018-Feb-13 19:00N 49°49' W 124°38'611.5
2018-Feb-13 18:30N 49°47' W 124°46'611.9
2018-Feb-13 18:00N 49°45' W 124°55'0 0.5
2018-Feb-13 17:30N 49°44' W 124°55'1 2.7
2018-Feb-13 17:00N 49°45' W 124°53'816.5
2018-Feb-13 16:30N 49°48' W 124°41'713.3
2018-Feb-13 16:01N 49°50' W 124°32'0 0.0
2018-Feb-13 15:31N 49°50' W 124°32'712.1
2018-Feb-13 14:58N 49°48' W 124°42'613.5
2018-Feb-13 14:31N 49°46' W 124°50'3 6.8
2018-Feb-13 14:00N 49°44' W 124°55'0 0.0
2018-Feb-13 13:30N 49°44' W 124°55'0 0.0
2018-Feb-13 13:00N 49°44' W 124°55'0 0.0
2018-Feb-13 12:30N 49°44' W 124°55'0 0.0
2018-Feb-13 12:00N 49°44' W 124°55'0 0.0
2018-Feb-13 11:30N 49°44' W 124°55'0 0.0
2018-Feb-13 11:00N 49°44' W 124°55'0 0.0
2018-Feb-13 10:21N 49°44' W 124°55'0 0.0
2018-Feb-13 10:00N 49°44' W 124°55'0 0.0
2018-Feb-13 09:30N 49°44' W 124°55'0 0.0
2018-Feb-13 09:00N 49°44' W 124°55'0 0.0
2018-Feb-13 08:30N 49°44' W 124°55'0 0.0
2018-Feb-13 08:00N 49°44' W 124°55'0 0.0
2018-Feb-13 07:30N 49°44' W 124°55'0 0.0
2018-Feb-13 07:00N 49°44' W 124°55'0 0.0
2018-Feb-13 06:24N 49°44' W 124°55'0 0.0
2018-Feb-13 06:00N 49°44' W 124°55'510.5
2018-Feb-13 05:30N 49°46' W 124°48'714.8
2018-Feb-13 05:01N 49°49' W 124°37'4 7.3
2018-Feb-13 04:30N 49°50' W 124°32'510.8
2018-Feb-13 04:00N 49°48' W 124°40'713.7
2018-Feb-13 03:31N 49°46' W 124°50'4 7.9
2018-Feb-13 03:00N 49°44' W 124°55'0 0.0
2018-Feb-13 02:30N 49°44' W 124°55'611.8
2018-Feb-13 02:01N 49°46' W 124°47'714.1
2018-Feb-13 01:30N 49°49' W 124°37'3 6.5
2018-Feb-13 01:00N 49°50' W 124°32'2 4.7
2018-Feb-13 00:30N 49°49' W 124°35'713.3
2018-Feb-13 00:00N 49°47' W 124°45'713.2
2018-Feb-12 23:30N 49°45' W 124°54'1 1.3
2018-Feb-12 23:00N 49°44' W 124°55'0 0.0
2018-Feb-12 22:30N 49°44' W 124°55'0 0.0
2018-Feb-12 21:59N 49°44' W 124°55'0 0.0
2018-Feb-12 21:26N 49°44' W 124°55'1 1.2
2018-Feb-12 21:00N 49°45' W 124°55'714.0
2018-Feb-12 20:31N 49°47' W 124°44'714.2
2018-Feb-12 20:00N 49°49' W 124°34'2 3.1
2018-Feb-12 19:30N 49°50' W 124°32'2 3.7
2018-Feb-12 19:00N 49°50' W 124°35'713.2
2018-Feb-12 18:30N 49°47' W 124°44'713.7
2018-Feb-12 18:00N 49°45' W 124°54'1 1.9
2018-Feb-12 17:30N 49°44' W 124°55'4 7.2
2018-Feb-12 17:00N 49°46' W 124°50'713.7
2018-Feb-12 16:30N 49°48' W 124°40'611.5
2018-Feb-12 16:01N 49°50' W 124°32'1 2.2
2018-Feb-12 15:30N 49°50' W 124°33'611.7
2018-Feb-12 14:59N 49°48' W 124°42'612.0
2018-Feb-12 14:30N 49°46' W 124°51'3 5.9
2018-Feb-12 13:58N 49°44' W 124°55'0 0.0
2018-Feb-12 13:28N 49°44' W 124°55'0 0.0
2018-Feb-12 12:58N 49°44' W 124°55'0 0.0
2018-Feb-12 12:22N 49°44' W 124°55'0 0.0
2018-Feb-12 11:58N 49°44' W 124°55'0 0.0
2018-Feb-12 11:22N 49°44' W 124°55'0 0.0
2018-Feb-12 10:55N 49°44' W 124°55'0 0.0
2018-Feb-12 10:28N 49°44' W 124°55'0 0.0
2018-Feb-12 09:55N 49°44' W 124°55'0 0.0
2018-Feb-12 09:28N 49°44' W 124°55'0 0.0
2018-Feb-12 08:58N 49°44' W 124°55'0 0.0
2018-Feb-12 08:28N 49°44' W 124°55'0 0.0
2018-Feb-12 07:58N 49°44' W 124°55'0 0.0
2018-Feb-12 07:28N 49°44' W 124°55'0 0.0
2018-Feb-12 06:58N 49°44' W 124°55'0 0.0
2018-Feb-12 06:28N 49°44' W 124°55'1 1.3
2018-Feb-12 06:00N 49°45' W 124°54'612.8
2018-Feb-12 05:30N 49°47' W 124°45'713.6
2018-Feb-12 05:00N 49°49' W 124°35'2 4.9
2018-Feb-12 04:30N 49°50' W 124°32'611.6
2018-Feb-12 04:00N 49°48' W 124°40'612.2
2018-Feb-12 03:30N 49°46' W 124°49'4 8.5
2018-Feb-12 03:00N 49°44' W 124°55'0 0.0
2018-Feb-12 02:30N 49°44' W 124°55'510.8
2018-Feb-12 02:00N 49°46' W 124°48'714.2
2018-Feb-12 01:30N 49°49' W 124°37'4 7.5
2018-Feb-12 01:00N 49°50' W 124°32'2 3.0
2018-Feb-12 00:30N 49°50' W 124°34'714.5
2018-Feb-12 00:00N 49°47' W 124°44'714.1
2018-Feb-11 23:30N 49°45' W 124°55'0 0.8
2018-Feb-11 23:00N 49°44' W 124°55'0 0.0
2018-Feb-11 22:30N 49°44' W 124°55'0 0.0
2018-Feb-11 21:57N 49°44' W 124°55'0 0.0
2018-Feb-11 21:30N 49°44' W 124°55'0 0.6
2018-Feb-11 21:00N 49°44' W 124°55'714.1
2018-Feb-11 20:30N 49°47' W 124°45'714.2
2018-Feb-11 20:00N 49°49' W 124°34'2 3.3
2018-Feb-11 19:29N 49°50' W 124°32'1 2.4
2018-Feb-11 19:00N 49°49' W 124°33'714.5
2018-Feb-11 18:30N 49°47' W 124°44'714.1
2018-Feb-11 18:00N 49°45' W 124°54'1 1.6
2018-Feb-11 17:30N 49°44' W 124°55'3 6.8
2018-Feb-11 17:00N 49°46' W 124°50'713.9
2018-Feb-11 16:30N 49°48' W 124°40'611.8
2018-Feb-11 16:00N 49°50' W 124°32'1 1.8
2018-Feb-11 15:30N 49°50' W 124°33'612.1
2018-Feb-11 15:01N 49°48' W 124°42'612.2
2018-Feb-11 14:30N 49°46' W 124°51'3 6.0
2018-Feb-11 13:59N 49°44' W 124°55'0 0.0
2018-Feb-11 13:29N 49°44' W 124°55'0 0.0
2018-Feb-11 12:59N 49°44' W 124°55'0 0.0
2018-Feb-11 12:29N 49°44' W 124°55'0 0.0
2018-Feb-11 11:59N 49°44' W 124°55'0 0.0
2018-Feb-11 11:29N 49°44' W 124°55'0 0.0
2018-Feb-11 10:56N 49°44' W 124°55'0 0.0
2018-Feb-11 10:29N 49°44' W 124°55'0 0.0
2018-Feb-11 09:59N 49°44' W 124°55'0 0.0
2018-Feb-11 09:29N 49°44' W 124°55'0 0.0
2018-Feb-11 08:59N 49°44' W 124°55'0 0.0
2018-Feb-11 08:29N 49°44' W 124°55'0 0.0
2018-Feb-11 07:59N 49°44' W 124°55'0 0.0
2018-Feb-11 07:29N 49°44' W 124°55'0 0.0
2018-Feb-11 06:59N 49°44' W 124°55'0 0.0
2018-Feb-11 06:23N 49°44' W 124°55'0 0.0
2018-Feb-11 06:00N 49°44' W 124°55'510.6
2018-Feb-11 05:30N 49°46' W 124°48'714.2
2018-Feb-11 05:00N 49°49' W 124°37'4 7.6
2018-Feb-11 04:30N 49°50' W 124°32'4 8.3
2018-Feb-11 04:00N 49°49' W 124°38'714.4
2018-Feb-11 03:30N 49°45' W 124°48'5 9.9
2018-Feb-11 03:00N 49°44' W 124°55'0 0.1
2018-Feb-11 02:30N 49°44' W 124°55'611.5
2018-Feb-11 02:01N 49°46' W 124°47'  

Dump ship's entire track history